首页
METAR-TAF:

METAR-TAF

机场 :

黑角, 刚果

纬度: 04-49S, 经度: 011-54E, 海拔: 17米

当前天气观测

该预报发布于47分钟前的09:30 UTC
风速3节,风向多变
温度 26°C
湿度 79%
气压 1014 hPa
能見度: 6000
散云层高于1000英尺
多云层高于2300英尺

METAR: FCPP 160930Z VRB03KT 6000 SCT010 BKN023 26/22 Q1014 TEMPO BKN010 BKN020

时间: 11:17 (10:17 UTC)

预报

该预报发布于5小时和17分钟前的05:00 UTC
预报有效从16日的 06点(UTC)到 17日的 06点(UTC)
风速3节,风向多变
能見度: 4000
少量云层高于1000英尺
多云层高于2300英尺
轻雾
成为
从 16日的 07点(UTC)到 16日的 09点(UTC)
能見度: 7000
几率 40%
从 16日的 12点(UTC)到 16日的 18点(UTC)
风速10节,风向南转西南
几率 40%
从 17日的 02点(UTC)到 17日的 06点(UTC)
能見度: 4000
轻雾,

TAF: FCPP 160500Z 1606/1706 VRB03KT 4000 BR FEW010 BKN023 BECMG 1607/1609 7000 NSW PROB40 1612/1618 20010KT PROB40 1702/1706 4000 BR

超过4000个机场的气象观测和天气预报(METAR&TAF报告)。

可查询的气象台以黄色和红色小点在地图上表示。

将鼠标移到小点上方,可查看气象台名称。

然后点击查看天气观测和预报。

如需切换地图:点击带黑十字的绿色按钮放大地图;点击带横线的绿色按钮缩小地图;或者点击绿色箭头查看邻近地区的地图。


METAR-TAF: